createdAt,value
2022-10-23T00:02:03.500Z,12.22
2022-10-23T00:04:34.670Z,12.25
2022-10-23T00:07:05.657Z,12.11
2022-10-23T00:09:34.633Z,12.36
2022-10-23T00:12:03.688Z,12.47
2022-10-23T00:14:32.322Z,12.31
2022-10-23T00:17:01.070Z,12.22
2022-10-23T00:19:31.355Z,12.09
2022-10-23T00:22:02.699Z,12.00
2022-10-23T00:24:33.584Z,11.97
2022-10-23T00:27:02.515Z,11.93
2022-10-23T00:29:31.162Z,11.92
2022-10-23T00:32:02.007Z,11.93
2022-10-23T00:34:32.020Z,11.90
2022-10-23T00:37:00.618Z,11.84
2022-10-23T00:39:29.657Z,11.77
2022-10-23T00:41:58.270Z,11.70
2022-10-23T00:45:04.164Z,11.80
2022-10-23T00:47:33.291Z,11.93
2022-10-23T00:50:03.459Z,11.77
2022-10-23T00:52:34.812Z,11.84
2022-10-23T00:55:06.373Z,11.88
2022-10-23T00:57:35.399Z,11.94
2022-10-23T01:00:05.035Z,11.75
2022-10-23T01:02:34.168Z,11.82
2022-10-23T01:05:04.437Z,11.76
2022-10-23T01:07:44.417Z,11.83
2022-10-23T01:10:21.727Z,11.76
2022-10-23T01:12:56.896Z,11.84
2022-10-23T01:15:31.618Z,11.86
2022-10-23T01:18:07.650Z,11.83
2022-10-23T01:20:43.581Z,12.04
2022-10-23T01:23:30.348Z,11.97
2022-10-23T01:26:10.080Z,11.93
2022-10-23T01:28:48.718Z,11.84
2022-10-23T01:31:21.138Z,12.13
2022-10-23T01:33:56.161Z,11.95
2022-10-23T01:36:33.064Z,12.04
2022-10-23T01:39:08.012Z,12.05
2022-10-23T01:41:43.280Z,12.17
2022-10-23T01:44:17.839Z,12.48
2022-10-23T01:46:50.425Z,12.39
2022-10-23T01:49:21.934Z,12.19
2022-10-23T01:51:58.485Z,12.25
2022-10-23T01:54:31.586Z,12.33
2022-10-23T01:57:00.564Z,11.45
2022-10-23T01:59:36.888Z,12.10
2022-10-23T02:02:12.151Z,12.21
2022-10-23T02:04:52.427Z,12.33
2022-10-23T02:07:21.384Z,12.47
2022-10-23T02:09:52.791Z,12.29
2022-10-23T02:12:30.786Z,12.32
2022-10-23T02:15:07.988Z,12.06
2022-10-23T02:17:52.675Z,12.13
2022-10-23T02:20:28.904Z,12.08
2022-10-23T02:23:03.198Z,12.24
2022-10-23T02:25:37.434Z,12.15
2022-10-23T02:28:11.794Z,11.98
2022-10-23T02:30:50.817Z,12.06
2022-10-23T02:33:20.501Z,11.96
2022-10-23T02:35:49.966Z,11.82
2022-10-23T02:38:34.313Z,11.81
2022-10-23T02:41:17.420Z,11.94
2022-10-23T02:43:56.671Z,12.23
2022-10-23T02:46:38.148Z,12.14
2022-10-23T02:49:15.927Z,12.17
2022-10-23T02:51:57.026Z,12.27
2022-10-23T02:54:38.203Z,12.33
2022-10-23T02:57:19.127Z,12.04
2022-10-23T02:59:56.715Z,12.03
2022-10-23T03:02:30.137Z,12.28
2022-10-23T03:05:01.672Z,12.30
2022-10-23T03:07:35.373Z,12.18
2022-10-23T03:10:10.117Z,11.95
2022-10-23T03:12:39.498Z,12.08
2022-10-23T03:15:12.707Z,12.13
2022-10-23T03:17:44.590Z,11.31
2022-10-23T03:20:14.547Z,11.82
2022-10-23T03:22:46.533Z,11.68
2022-10-23T03:25:15.574Z,11.53
2022-10-23T03:27:47.638Z,11.73
2022-10-23T03:30:18.621Z,11.84
2022-10-23T03:32:52.724Z,11.97
2022-10-23T03:35:23.692Z,11.88
2022-10-23T03:37:55.944Z,12.00
2022-10-23T03:40:27.147Z,11.95
2022-10-23T03:42:55.926Z,11.68
2022-10-23T03:45:24.627Z,11.64
2022-10-23T03:47:54.705Z,11.70
2022-10-23T03:50:23.302Z,11.81
2022-10-23T03:52:54.499Z,11.77
2022-10-23T03:55:23.217Z,11.73
2022-10-23T03:57:52.291Z,11.58
2022-10-23T04:00:22.551Z,11.67
2022-10-23T04:02:54.934Z,11.64
2022-10-23T04:05:23.578Z,11.70
2022-10-23T04:07:56.628Z,11.67
2022-10-23T04:10:25.468Z,11.72
2022-10-23T04:12:54.357Z,11.80
2022-10-23T04:15:23.153Z,11.88
2022-10-23T04:17:51.829Z,11.90
2022-10-23T04:20:25.461Z,11.96
2022-10-23T04:22:54.060Z,11.81
2022-10-23T04:25:24.944Z,11.96
2022-10-23T04:27:53.606Z,11.99
2022-10-23T04:30:24.887Z,11.84
2022-10-23T04:32:54.267Z,11.86
2022-10-23T04:35:22.888Z,11.86
2022-10-23T04:37:52.961Z,11.84
2022-10-23T04:40:21.636Z,11.98
2022-10-23T04:42:52.777Z,12.08
2022-10-23T04:45:21.456Z,12.02
2022-10-23T04:47:50.410Z,11.68
2022-10-23T04:50:21.944Z,11.95
2022-10-23T04:53:28.451Z,11.83
2022-10-23T04:56:16.675Z,11.91
2022-10-23T04:58:52.756Z,11.87
2022-10-23T05:01:21.733Z,12.05
2022-10-23T05:03:50.410Z,11.96
2022-10-23T05:06:20.041Z,11.96
2022-10-23T05:08:58.558Z,12.09
2022-10-23T05:11:39.169Z,11.77
2022-10-23T05:14:10.411Z,12.03
2022-10-23T05:16:46.572Z,12.09
2022-10-23T05:19:23.381Z,11.94
2022-10-23T05:21:56.009Z,12.02
2022-10-23T05:24:30.747Z,11.86
2022-10-23T05:27:02.237Z,11.88
2022-10-23T05:29:33.046Z,11.89
2022-10-23T05:32:04.996Z,11.90
2022-10-23T05:34:36.489Z,12.07
2022-10-23T05:37:09.014Z,12.07
2022-10-23T05:39:41.495Z,12.14
2022-10-23T05:42:14.562Z,12.11
2022-10-23T05:44:43.961Z,12.35
2022-10-23T05:47:39.286Z,12.35
2022-10-23T05:50:27.911Z,12.26
2022-10-23T05:53:15.992Z,12.43
2022-10-23T05:56:10.679Z,12.48
2022-10-23T05:59:02.213Z,12.44
2022-10-23T06:01:51.284Z,12.46
2022-10-23T06:04:37.150Z,12.28
2022-10-23T06:07:17.836Z,12.45
2022-10-23T06:09:48.349Z,12.65
2022-10-23T06:12:18.549Z,12.37
2022-10-23T06:14:49.015Z,12.61
2022-10-23T06:17:20.197Z,12.54
2022-10-23T06:19:50.140Z,12.69
2022-10-23T06:25:03.286Z,12.55
2022-10-23T06:27:33.614Z,12.44
2022-10-23T06:30:07.252Z,12.83
2022-10-23T06:32:36.336Z,12.65
2022-10-23T06:35:14.144Z,12.80
2022-10-23T06:37:42.879Z,12.64
2022-10-23T06:40:19.394Z,11.94
2022-10-23T06:43:01.281Z,12.81
2022-10-23T06:45:37.990Z,12.75
2022-10-23T06:48:18.259Z,12.84
2022-10-23T06:51:06.613Z,12.47
2022-10-23T06:53:41.615Z,12.73
2022-10-23T06:56:30.350Z,12.66
2022-10-23T06:59:01.242Z,12.61
2022-10-23T07:01:34.067Z,11.99
2022-10-23T07:04:05.844Z,12.70
2022-10-23T07:06:34.740Z,12.52
2022-10-23T07:09:06.456Z,12.83
2022-10-23T07:12:02.069Z,12.61
2022-10-23T07:14:42.163Z,12.84
2022-10-23T07:17:11.308Z,12.94
2022-10-23T07:19:40.719Z,12.74
2022-10-23T07:22:16.095Z,12.74
2022-10-23T07:25:11.731Z,12.85
2022-10-23T07:27:44.056Z,12.48
2022-10-23T07:30:15.991Z,12.85
2022-10-23T07:32:52.878Z,12.79
2022-10-23T07:35:27.719Z,12.88
2022-10-23T07:38:06.797Z,12.72
2022-10-23T07:40:39.512Z,12.84
2022-10-23T07:43:11.150Z,12.92
2022-10-23T07:45:42.623Z,12.95
2022-10-23T07:48:19.631Z,12.92
2022-10-23T07:51:03.141Z,12.95
2022-10-23T07:53:33.034Z,12.97
2022-10-23T07:56:30.241Z,12.81
2022-10-23T07:59:17.075Z,13.04
2022-10-23T08:01:56.339Z,12.91
2022-10-23T08:04:30.262Z,12.97
2022-10-23T08:07:08.783Z,13.07
2022-10-23T08:09:43.535Z,13.20
2022-10-23T08:12:15.504Z,13.07
2022-10-23T08:14:44.415Z,13.13
2022-10-23T08:17:15.366Z,13.21
2022-10-23T08:20:10.742Z,13.23
2022-10-23T08:22:44.010Z,13.28
2022-10-23T08:25:24.872Z,13.07
2022-10-23T08:27:55.289Z,13.20
2022-10-23T08:30:24.226Z,13.24
2022-10-23T08:32:54.791Z,12.67
2022-10-23T08:35:24.054Z,13.17
2022-10-23T08:37:55.139Z,13.45
2022-10-23T08:40:26.878Z,13.37
2022-10-23T08:43:21.036Z,13.18
2022-10-23T08:46:16.997Z,13.38
2022-10-23T08:49:30.791Z,13.35
2022-10-23T08:52:16.129Z,13.49
2022-10-23T08:54:58.302Z,13.28
2022-10-23T08:57:34.766Z,13.52
2022-10-23T09:00:07.242Z,13.52
2022-10-23T09:02:42.017Z,12.80
2022-10-23T09:05:18.004Z,13.55
2022-10-23T09:08:05.851Z,13.77
2022-10-23T09:10:50.615Z,13.63
2022-10-23T09:13:41.606Z,13.73
2022-10-23T09:16:22.536Z,13.87
2022-10-23T09:18:51.591Z,13.67
2022-10-23T09:21:30.379Z,13.78
2022-10-23T09:24:00.752Z,13.68
2022-10-23T09:26:29.783Z,13.85
2022-10-23T09:29:15.284Z,14.04
2022-10-23T09:31:50.727Z,13.77
2022-10-23T09:34:24.532Z,14.01
2022-10-23T09:36:57.305Z,14.02
2022-10-23T09:39:30.281Z,13.99
2022-10-23T09:41:59.921Z,13.96
2022-10-23T09:44:33.655Z,13.88
2022-10-23T09:47:12.305Z,14.17
2022-10-23T09:49:47.702Z,14.09
2022-10-23T09:52:34.475Z,14.16
2022-10-23T09:55:05.527Z,13.94
2022-10-23T09:57:41.084Z,14.14
2022-10-23T10:00:18.835Z,14.35
2022-10-23T10:02:59.433Z,14.19
2022-10-23T10:05:34.608Z,14.23
2022-10-23T10:08:16.512Z,14.20
2022-10-23T10:10:52.273Z,13.68
2022-10-23T10:13:43.644Z,14.23
2022-10-23T10:16:21.781Z,14.33
2022-10-23T10:18:58.556Z,14.40
2022-10-23T10:21:31.227Z,14.39
2022-10-23T10:24:09.732Z,14.30
2022-10-23T10:26:45.724Z,14.19
2022-10-23T10:29:30.810Z,14.32
2022-10-23T10:32:07.457Z,14.39
2022-10-23T10:34:44.315Z,14.48
2022-10-23T10:37:26.513Z,14.50
2022-10-23T10:40:04.052Z,14.63
2022-10-23T10:42:49.849Z,14.66
2022-10-23T10:45:28.190Z,14.58
2022-10-23T10:48:25.682Z,14.62
2022-10-23T10:51:22.437Z,14.55
2022-10-23T10:54:09.681Z,14.61
2022-10-23T10:56:42.825Z,14.67
2022-10-23T10:59:17.963Z,14.66
2022-10-23T11:01:54.584Z,14.86
2022-10-23T11:04:33.305Z,14.80
2022-10-23T11:07:09.177Z,14.67
2022-10-23T11:09:39.892Z,14.87
2022-10-23T11:12:18.851Z,14.60
2022-10-23T11:14:47.900Z,15.11
2022-10-23T11:17:21.385Z,14.98
2022-10-23T11:20:00.558Z,15.08
2022-10-23T11:22:37.714Z,15.18
2022-10-23T11:25:47.696Z,15.24
2022-10-23T11:28:29.569Z,15.42
2022-10-23T11:31:12.117Z,15.47
2022-10-23T11:34:02.459Z,15.50
2022-10-23T11:36:44.112Z,15.24
2022-10-23T11:39:20.539Z,15.52
2022-10-23T11:41:52.406Z,15.53
2022-10-23T11:44:39.127Z,15.70
2022-10-23T11:47:39.351Z,15.50
2022-10-23T11:50:24.954Z,15.76
2022-10-23T11:53:12.940Z,15.83
2022-10-23T11:55:59.790Z,15.95
2022-10-23T11:58:40.785Z,15.99
2022-10-23T12:01:38.453Z,16.15
2022-10-23T12:04:21.456Z,16.28
2022-10-23T12:06:53.667Z,16.10
2022-10-23T12:09:32.712Z,16.23
2022-10-23T12:12:28.531Z,16.08
2022-10-23T12:15:09.983Z,16.02
2022-10-23T12:17:42.087Z,16.16
2022-10-23T12:20:23.896Z,16.33
2022-10-23T12:23:09.480Z,16.25
2022-10-23T12:25:52.288Z,16.40
2022-10-23T12:28:35.220Z,16.43
2022-10-23T12:31:18.761Z,16.17
2022-10-23T12:33:55.947Z,16.37
2022-10-23T12:36:40.070Z,16.57
2022-10-23T12:39:27.963Z,16.47
2022-10-23T12:41:58.385Z,16.43
2022-10-23T12:44:28.326Z,16.62
2022-10-23T12:47:00.387Z,16.67
2022-10-23T12:49:35.520Z,16.68
2022-10-23T12:52:06.965Z,16.62
2022-10-23T12:54:40.699Z,16.75
2022-10-23T12:57:21.931Z,16.70
2022-10-23T12:59:52.622Z,16.10
2022-10-23T13:02:26.264Z,16.56
2022-10-23T13:04:59.344Z,16.72
2022-10-23T13:07:30.409Z,16.66
2022-10-23T13:10:01.850Z,16.78
2022-10-23T13:12:41.437Z,17.12
2022-10-23T13:15:18.550Z,17.07
2022-10-23T13:17:49.025Z,16.99
2022-10-23T13:20:26.390Z,16.94
2022-10-23T13:23:01.002Z,16.69
2022-10-23T13:25:32.221Z,17.14
2022-10-23T13:28:25.534Z,17.08
2022-10-23T13:31:06.924Z,17.09
2022-10-23T13:33:40.656Z,17.16
2022-10-23T13:36:24.506Z,17.17
2022-10-23T13:39:13.521Z,17.33
2022-10-23T13:41:44.299Z,17.21
2022-10-23T13:44:15.972Z,17.28
2022-10-23T13:46:44.904Z,17.26
2022-10-23T13:49:14.082Z,17.37
2022-10-23T13:51:48.672Z,17.02
2022-10-23T13:54:19.732Z,17.13
2022-10-23T13:56:51.841Z,17.25
2022-10-23T13:59:20.795Z,17.29
2022-10-23T14:01:51.200Z,17.18
2022-10-23T14:04:20.487Z,17.36
2022-10-23T14:06:50.515Z,17.42
2022-10-23T14:09:19.655Z,17.28
2022-10-23T14:11:48.291Z,17.36
2022-10-23T14:14:19.895Z,17.45
2022-10-23T14:16:52.816Z,17.43
2022-10-23T14:19:27.346Z,17.27
2022-10-23T14:22:00.257Z,17.23
2022-10-23T14:24:29.200Z,17.49
2022-10-23T14:26:59.629Z,17.47
2022-10-23T14:29:30.688Z,17.55
2022-10-23T14:32:01.545Z,17.42
2022-10-23T14:34:32.496Z,17.45
2022-10-23T14:37:08.924Z,17.37
2022-10-23T14:39:38.760Z,17.39
2022-10-23T14:42:07.499Z,17.60
2022-10-23T14:44:36.267Z,17.45
2022-10-23T14:47:05.018Z,17.47
2022-10-23T14:49:35.645Z,17.42
2022-10-23T14:52:06.359Z,17.40
2022-10-23T14:54:36.432Z,17.40
2022-10-23T14:57:07.760Z,17.32
2022-10-23T14:59:36.428Z,17.47
2022-10-23T15:02:11.748Z,17.27
2022-10-23T15:04:40.685Z,17.23
2022-10-23T15:07:10.872Z,17.36
2022-10-23T15:09:39.767Z,17.32
2022-10-23T15:12:08.872Z,17.11
2022-10-23T15:14:37.486Z,17.33
2022-10-23T15:17:07.736Z,17.21
2022-10-23T15:19:38.258Z,17.22
2022-10-23T15:22:10.696Z,17.12
2022-10-23T15:24:41.564Z,17.11
2022-10-23T15:29:44.203Z,16.97
2022-10-23T15:32:13.502Z,17.16
2022-10-23T15:34:42.922Z,17.08
2022-10-23T15:37:13.371Z,17.12
2022-10-23T15:39:44.773Z,16.98
2022-10-23T15:42:13.699Z,17.02
2022-10-23T15:44:42.383Z,16.80
2022-10-23T15:47:13.517Z,16.97
2022-10-23T15:49:42.181Z,17.08
2022-10-23T15:52:11.400Z,16.78
2022-10-23T15:54:41.781Z,16.88
2022-10-23T15:57:11.585Z,16.94
2022-10-23T15:59:42.468Z,16.98
2022-10-23T16:02:12.747Z,17.02
2022-10-23T16:04:41.527Z,16.89
2022-10-23T16:07:12.501Z,16.92
2022-10-23T16:09:42.737Z,16.98
2022-10-23T16:12:14.597Z,17.12
2022-10-23T16:14:43.257Z,17.05
2022-10-23T16:17:13.285Z,17.03
2022-10-23T16:19:42.409Z,16.95
2022-10-23T16:22:11.140Z,17.10
2022-10-23T16:24:40.313Z,16.90
2022-10-23T16:27:15.072Z,16.78
2022-10-23T16:29:44.016Z,16.25
2022-10-23T16:32:15.439Z,16.97
2022-10-23T16:34:45.181Z,16.84
2022-10-23T16:37:16.156Z,16.85
2022-10-23T16:39:52.838Z,16.96
2022-10-23T16:42:52.193Z,16.02
2022-10-23T16:45:43.304Z,16.67
2022-10-23T16:48:12.278Z,16.85
2022-10-23T16:50:41.419Z,16.76
2022-10-23T16:53:11.706Z,16.91
2022-10-23T16:55:41.708Z,16.65
2022-10-23T16:58:11.748Z,16.81
2022-10-23T17:00:45.226Z,17.05
2022-10-23T17:03:18.991Z,16.79
2022-10-23T17:05:47.742Z,16.77
2022-10-23T17:08:18.750Z,16.76
2022-10-23T17:10:47.964Z,16.76
2022-10-23T17:13:18.187Z,16.90
2022-10-23T17:15:46.869Z,16.82
2022-10-23T17:18:15.942Z,16.87
2022-10-23T17:20:45.056Z,16.50
2022-10-23T17:23:14.149Z,16.69
2022-10-23T17:25:45.629Z,16.85
2022-10-23T17:28:18.217Z,16.60
2022-10-23T17:30:46.912Z,16.65
2022-10-23T17:33:18.957Z,16.91
2022-10-23T17:35:47.926Z,16.74
2022-10-23T17:38:21.675Z,15.72
2022-10-23T17:40:52.673Z,16.60
2022-10-23T17:43:22.670Z,16.69
2022-10-23T17:45:51.262Z,16.72
2022-10-23T17:48:19.857Z,16.64
2022-10-23T17:50:48.418Z,16.85
2022-10-23T17:53:19.262Z,16.55
2022-10-23T17:55:47.941Z,16.73
2022-10-23T17:58:16.594Z,16.80
2022-10-23T18:00:46.666Z,16.80
2022-10-23T18:03:19.835Z,16.79
2022-10-23T18:05:51.003Z,16.80
2022-10-23T18:08:21.820Z,16.86
2022-10-23T18:10:52.963Z,16.87
2022-10-23T18:13:23.997Z,16.85
2022-10-23T18:15:56.690Z,16.81
2022-10-23T18:18:25.313Z,16.62
2022-10-23T18:20:53.946Z,16.83
2022-10-23T18:23:22.863Z,16.99
2022-10-23T18:25:51.669Z,16.81
2022-10-23T18:28:20.566Z,16.82
2022-10-23T18:30:53.415Z,16.95
2022-10-23T18:33:31.215Z,16.81
2022-10-23T18:36:00.191Z,16.74
2022-10-23T18:38:30.105Z,16.59
2022-10-23T18:41:01.570Z,16.85
2022-10-23T18:43:43.419Z,16.81
2022-10-23T18:46:13.232Z,16.83
2022-10-23T18:48:43.662Z,16.72
2022-10-23T18:51:41.319Z,16.53
2022-10-23T18:54:14.035Z,16.45
2022-10-23T18:56:43.473Z,16.53
2022-10-23T18:59:33.950Z,16.46
2022-10-23T19:02:13.301Z,16.31
2022-10-23T19:04:46.843Z,16.01
2022-10-23T19:07:36.082Z,15.95
2022-10-23T19:11:00.167Z,15.99
2022-10-23T19:13:39.245Z,16.12
2022-10-23T19:16:23.987Z,16.22
2022-10-23T19:19:20.783Z,15.96
2022-10-23T19:21:55.864Z,16.00
2022-10-23T19:24:59.514Z,15.69
2022-10-23T19:27:39.617Z,15.54
2022-10-23T19:30:13.864Z,15.43
2022-10-23T19:32:48.821Z,15.27
2022-10-23T19:35:40.846Z,15.18
2022-10-23T19:38:25.380Z,15.47
2022-10-23T19:40:56.788Z,15.28
2022-10-23T19:43:25.945Z,15.25
2022-10-23T19:46:06.310Z,15.55
2022-10-23T19:48:44.437Z,15.08
2022-10-23T19:51:14.539Z,15.47
2022-10-23T19:53:55.326Z,15.96
2022-10-23T19:56:27.346Z,15.37
2022-10-23T19:58:56.107Z,15.58
2022-10-23T20:01:28.993Z,15.47
2022-10-23T20:03:58.721Z,14.83
2022-10-23T20:06:34.788Z,15.34
2022-10-23T20:09:09.336Z,15.02
2022-10-23T20:11:41.619Z,14.96
2022-10-23T20:14:10.256Z,14.95
2022-10-23T20:16:40.317Z,14.55
2022-10-23T20:19:11.817Z,14.78
2022-10-23T20:21:47.323Z,15.01
2022-10-23T20:24:21.746Z,15.04
2022-10-23T20:26:53.572Z,15.11
2022-10-23T20:29:24.650Z,15.23
2022-10-23T20:31:53.425Z,14.74
2022-10-23T20:34:25.756Z,15.11
2022-10-23T20:36:57.462Z,15.02
2022-10-23T20:39:29.837Z,14.04
2022-10-23T20:42:00.273Z,14.73
2022-10-23T20:44:32.392Z,14.58
2022-10-23T20:47:01.094Z,14.63
2022-10-23T20:49:29.838Z,14.50
2022-10-23T20:51:58.978Z,14.74
2022-10-23T20:54:29.495Z,14.74
2022-10-23T20:56:58.932Z,14.80
2022-10-23T20:59:28.116Z,14.84
2022-10-23T21:01:59.519Z,14.67
2022-10-23T21:04:29.153Z,14.81
2022-10-23T21:07:16.465Z,14.80
2022-10-23T21:09:49.905Z,14.69
2022-10-23T21:12:18.474Z,14.79
2022-10-23T21:14:47.123Z,14.95
2022-10-23T21:17:17.629Z,14.74
2022-10-23T21:19:46.525Z,14.77
2022-10-23T21:22:18.688Z,14.68
2022-10-23T21:24:55.143Z,14.59
2022-10-23T21:27:26.333Z,14.69
2022-10-23T21:29:54.997Z,14.57
2022-10-23T21:32:23.719Z,14.18
2022-10-23T21:34:52.350Z,14.69
2022-10-23T21:37:21.008Z,14.56
2022-10-23T21:39:49.594Z,14.72
2022-10-23T21:42:19.673Z,14.78
2022-10-23T21:44:51.278Z,13.80
2022-10-23T21:47:22.398Z,14.77
2022-10-23T21:49:51.000Z,14.66
2022-10-23T21:52:19.922Z,14.47
2022-10-23T21:54:52.874Z,14.74
2022-10-23T21:57:25.884Z,13.91
2022-10-23T21:59:57.075Z,14.50
2022-10-23T22:02:26.773Z,14.46
2022-10-23T22:04:55.497Z,14.37
2022-10-23T22:10:00.767Z,14.62
2022-10-23T22:12:31.481Z,14.72
2022-10-23T22:15:01.036Z,14.61
2022-10-23T22:17:32.234Z,14.58
2022-10-23T22:20:00.820Z,13.17
2022-10-23T22:22:29.417Z,14.47
2022-10-23T22:24:58.709Z,14.84
2022-10-23T22:27:31.155Z,14.76
2022-10-23T22:30:03.815Z,14.57
2022-10-23T22:32:33.051Z,14.59
2022-10-23T22:35:02.185Z,14.65
2022-10-23T22:37:33.371Z,14.84
2022-10-23T22:40:02.488Z,14.75
2022-10-23T22:42:32.509Z,14.92
2022-10-23T22:45:01.135Z,14.86
2022-10-23T22:47:30.554Z,14.92
2022-10-23T22:49:59.174Z,15.07
2022-10-23T22:52:27.990Z,14.95
2022-10-23T22:54:56.640Z,14.93
2022-10-23T23:00:00.882Z,13.70
2022-10-23T23:02:31.953Z,14.74
2022-10-23T23:05:00.624Z,14.61
2022-10-23T23:07:31.917Z,14.75
2022-10-23T23:10:02.989Z,14.79
2022-10-23T23:12:33.831Z,14.67
2022-10-23T23:15:10.129Z,14.88
2022-10-23T23:17:38.778Z,14.96
2022-10-23T23:20:11.305Z,14.87
2022-10-23T23:22:42.708Z,15.08
2022-10-23T23:25:14.085Z,14.97
2022-10-23T23:27:44.880Z,15.05
2022-10-23T23:30:17.887Z,14.83
2022-10-23T23:32:52.991Z,14.95
2022-10-23T23:35:22.060Z,15.07
2022-10-23T23:37:50.905Z,15.07
2022-10-23T23:40:19.950Z,14.96
2022-10-23T23:42:49.097Z,15.00
2022-10-23T23:45:19.235Z,15.07
2022-10-23T23:47:47.967Z,14.84
2022-10-23T23:50:19.165Z,14.87
2022-10-23T23:52:48.197Z,14.88
2022-10-23T23:55:19.468Z,14.78
2022-10-23T23:57:48.456Z,15.08
